sensor_id;sensor_type;location;lat;lon;timestamp;pressure;altitude;pressure_sealevel;temperature;humidity
78888;BME280;68276;49.326;8.690;2023-05-07T00:00:16;100168.75;;;17.42;64.72
78888;BME280;68276;49.326;8.690;2023-05-07T00:02:44;100170.19;;;17.45;64.62
78888;BME280;68276;49.326;8.690;2023-05-07T00:05:09;100170.00;;;17.46;63.96
78888;BME280;68276;49.326;8.690;2023-05-07T00:07:35;100174.34;;;17.47;64.19
78888;BME280;68276;49.326;8.690;2023-05-07T00:10:01;100164.56;;;17.46;64.37
78888;BME280;68276;49.326;8.690;2023-05-07T00:12:26;100167.47;;;17.45;64.15
78888;BME280;68276;49.326;8.690;2023-05-07T00:14:52;100161.59;;;17.48;64.18
78888;BME280;68276;49.326;8.690;2023-05-07T00:17:17;100159.34;;;17.45;64.44
78888;BME280;68276;49.326;8.690;2023-05-07T00:19:43;100149.50;;;17.44;64.55
78888;BME280;68276;49.326;8.690;2023-05-07T00:22:08;100146.69;;;17.39;64.77
78888;BME280;68276;49.326;8.690;2023-05-07T00:24:34;100141.03;;;17.40;64.47
78888;BME280;68276;49.326;8.690;2023-05-07T00:26:59;100139.59;;;17.38;64.53
78888;BME280;68276;49.326;8.690;2023-05-07T00:29:25;100143.16;;;17.38;64.79
78888;BME280;68276;49.326;8.690;2023-05-07T00:31:50;100135.25;;;17.37;65.26
78888;BME280;68276;49.326;8.690;2023-05-07T00:34:16;100144.91;;;17.33;65.38
78888;BME280;68276;49.326;8.690;2023-05-07T00:36:41;100146.44;;;17.29;65.59
78888;BME280;68276;49.326;8.690;2023-05-07T00:39:07;100145.47;;;17.23;65.67
78888;BME280;68276;49.326;8.690;2023-05-07T00:41:32;100146.41;;;17.17;66.49
78888;BME280;68276;49.326;8.690;2023-05-07T00:43:58;100142.03;;;17.16;66.15
78888;BME280;68276;49.326;8.690;2023-05-07T00:46:23;100136.97;;;17.19;66.44
78888;BME280;68276;49.326;8.690;2023-05-07T00:48:52;100137.44;;;17.16;66.76
78888;BME280;68276;49.326;8.690;2023-05-07T00:51:18;100144.59;;;17.11;66.83
78888;BME280;68276;49.326;8.690;2023-05-07T00:53:45;100141.22;;;17.15;66.21
78888;BME280;68276;49.326;8.690;2023-05-07T00:56:11;100139.53;;;17.14;66.27
78888;BME280;68276;49.326;8.690;2023-05-07T00:58:37;100134.59;;;17.11;67.14
78888;BME280;68276;49.326;8.690;2023-05-07T01:01:03;100130.00;;;17.12;66.82
78888;BME280;68276;49.326;8.690;2023-05-07T01:03:28;100121.72;;;17.07;66.98
78888;BME280;68276;49.326;8.690;2023-05-07T01:05:55;100125.84;;;17.09;66.63
78888;BME280;68276;49.326;8.690;2023-05-07T01:08:22;100121.50;;;17.08;67.65
78888;BME280;68276;49.326;8.690;2023-05-07T01:10:50;100122.28;;;17.09;66.65
78888;BME280;68276;49.326;8.690;2023-05-07T01:13:16;100123.25;;;17.03;66.90
78888;BME280;68276;49.326;8.690;2023-05-07T01:15:43;100127.47;;;16.99;67.11
78888;BME280;68276;49.326;8.690;2023-05-07T01:18:08;100125.59;;;16.99;66.68
78888;BME280;68276;49.326;8.690;2023-05-07T01:20:33;100126.66;;;16.98;66.90
78888;BME280;68276;49.326;8.690;2023-05-07T01:23:00;100124.38;;;16.95;67.08
78888;BME280;68276;49.326;8.690;2023-05-07T01:25:26;100126.72;;;16.92;67.29
78888;BME280;68276;49.326;8.690;2023-05-07T01:27:52;100126.16;;;16.90;66.95
78888;BME280;68276;49.326;8.690;2023-05-07T01:30:18;100118.84;;;16.90;66.99
78888;BME280;68276;49.326;8.690;2023-05-07T01:32:57;100127.81;;;16.91;66.79
78888;BME280;68276;49.326;8.690;2023-05-07T01:35:30;100121.41;;;16.85;67.33
78888;BME280;68276;49.326;8.690;2023-05-07T01:37:57;100129.66;;;16.79;67.77
78888;BME280;68276;49.326;8.690;2023-05-07T01:40:24;100122.25;;;16.86;67.11
78888;BME280;68276;49.326;8.690;2023-05-07T01:42:50;100112.53;;;16.78;67.63
78888;BME280;68276;49.326;8.690;2023-05-07T01:45:16;100111.72;;;16.78;67.74
78888;BME280;68276;49.326;8.690;2023-05-07T01:47:42;100111.38;;;16.74;68.31
78888;BME280;68276;49.326;8.690;2023-05-07T01:50:08;100115.59;;;16.70;68.74
78888;BME280;68276;49.326;8.690;2023-05-07T01:52:36;100113.91;;;16.69;68.71
78888;BME280;68276;49.326;8.690;2023-05-07T01:55:02;100116.06;;;16.67;68.81
78888;BME280;68276;49.326;8.690;2023-05-07T01:57:28;100119.81;;;16.66;69.10
78888;BME280;68276;49.326;8.690;2023-05-07T01:59:53;100111.91;;;16.65;68.84
78888;BME280;68276;49.326;8.690;2023-05-07T02:02:19;100118.16;;;16.65;69.08
78888;BME280;68276;49.326;8.690;2023-05-07T02:04:44;100116.97;;;16.61;69.05
78888;BME280;68276;49.326;8.690;2023-05-07T02:07:10;100116.59;;;16.58;69.67
78888;BME280;68276;49.326;8.690;2023-05-07T02:09:35;100119.41;;;16.51;70.34
78888;BME280;68276;49.326;8.690;2023-05-07T02:12:01;100119.63;;;16.50;70.16
78888;BME280;68276;49.326;8.690;2023-05-07T02:14:26;100115.75;;;16.57;70.29
78888;BME280;68276;49.326;8.690;2023-05-07T02:16:51;100119.66;;;16.61;69.53
78888;BME280;68276;49.326;8.690;2023-05-07T02:19:17;100118.59;;;16.62;69.58
78888;BME280;68276;49.326;8.690;2023-05-07T02:21:43;100105.75;;;16.58;69.53
78888;BME280;68276;49.326;8.690;2023-05-07T02:24:08;100109.97;;;16.54;70.07
78888;BME280;68276;49.326;8.690;2023-05-07T02:26:34;100113.38;;;16.49;70.50
78888;BME280;68276;49.326;8.690;2023-05-07T02:28:59;100101.44;;;16.50;70.69
78888;BME280;68276;49.326;8.690;2023-05-07T02:31:25;100105.22;;;16.49;70.17
78888;BME280;68276;49.326;8.690;2023-05-07T02:33:50;100109.97;;;16.54;69.79
78888;BME280;68276;49.326;8.690;2023-05-07T02:36:16;100111.16;;;16.58;69.48
78888;BME280;68276;49.326;8.690;2023-05-07T02:38:41;100112.25;;;16.57;69.86
78888;BME280;68276;49.326;8.690;2023-05-07T02:41:06;100114.13;;;16.56;69.47
78888;BME280;68276;49.326;8.690;2023-05-07T02:43:32;100116.97;;;16.61;69.23
78888;BME280;68276;49.326;8.690;2023-05-07T02:46:05;100122.75;;;16.65;69.26
78888;BME280;68276;49.326;8.690;2023-05-07T02:48:31;100115.31;;;16.60;69.49
78888;BME280;68276;49.326;8.690;2023-05-07T02:50:57;100111.53;;;16.61;69.22
78888;BME280;68276;49.326;8.690;2023-05-07T02:53:22;100102.94;;;16.64;69.39
78888;BME280;68276;49.326;8.690;2023-05-07T02:55:50;100108.81;;;16.61;69.14
78888;BME280;68276;49.326;8.690;2023-05-07T02:58:15;100106.56;;;16.58;69.21
78888;BME280;68276;49.326;8.690;2023-05-07T03:00:41;100109.06;;;16.60;68.83
78888;BME280;68276;49.326;8.690;2023-05-07T03:03:06;100107.75;;;16.62;68.89
78888;BME280;68276;49.326;8.690;2023-05-07T03:05:32;100114.72;;;16.58;69.16
78888;BME280;68276;49.326;8.690;2023-05-07T03:07:57;100116.50;;;16.64;68.67
78888;BME280;68276;49.326;8.690;2023-05-07T03:10:23;100121.19;;;16.57;69.06
78888;BME280;68276;49.326;8.690;2023-05-07T03:12:48;100112.59;;;16.60;68.33
78888;BME280;68276;49.326;8.690;2023-05-07T03:15:13;100114.13;;;16.56;69.06
78888;BME280;68276;49.326;8.690;2023-05-07T03:17:39;100114.81;;;16.52;69.22
78888;BME280;68276;49.326;8.690;2023-05-07T03:20:05;100109.81;;;16.49;69.42
78888;BME280;68276;49.326;8.690;2023-05-07T03:22:30;100111.25;;;16.51;68.68
78888;BME280;68276;49.326;8.690;2023-05-07T03:24:56;100118.31;;;16.52;68.87
78888;BME280;68276;49.326;8.690;2023-05-07T03:27:21;100110.88;;;16.48;69.16
78888;BME280;68276;49.326;8.690;2023-05-07T03:29:47;100107.09;;;16.49;69.79
78888;BME280;68276;49.326;8.690;2023-05-07T03:32:13;100105.75;;;16.40;70.27
78888;BME280;68276;49.326;8.690;2023-05-07T03:34:38;100107.03;;;16.37;70.27
78888;BME280;68276;49.326;8.690;2023-05-07T03:37:03;100112.16;;;16.27;70.99
78888;BME280;68276;49.326;8.690;2023-05-07T03:39:29;100101.41;;;16.21;71.52
78888;BME280;68276;49.326;8.690;2023-05-07T03:41:55;100099.13;;;16.18;71.45
78888;BME280;68276;49.326;8.690;2023-05-07T03:44:21;100099.97;;;16.18;71.75
78888;BME280;68276;49.326;8.690;2023-05-07T03:46:46;100099.59;;;16.15;71.42
78888;BME280;68276;49.326;8.690;2023-05-07T03:49:12;100107.50;;;16.16;71.70
78888;BME280;68276;49.326;8.690;2023-05-07T03:51:37;100105.16;;;16.20;71.27
78888;BME280;68276;49.326;8.690;2023-05-07T03:54:02;100095.00;;;16.15;71.48
78888;BME280;68276;49.326;8.690;2023-05-07T03:56:28;100109.22;;;16.11;72.06
78888;BME280;68276;49.326;8.690;2023-05-07T03:58:54;100115.72;;;16.10;71.98
78888;BME280;68276;49.326;8.690;2023-05-07T04:01:19;100117.59;;;16.09;71.93
78888;BME280;68276;49.326;8.690;2023-05-07T04:03:44;100115.94;;;16.08;72.46
78888;BME280;68276;49.326;8.690;2023-05-07T04:06:10;100125.09;;;16.07;71.97
78888;BME280;68276;49.326;8.690;2023-05-07T04:08:35;100120.38;;;16.02;72.79
78888;BME280;68276;49.326;8.690;2023-05-07T04:11:01;100127.28;;;15.98;73.13
78888;BME280;68276;49.326;8.690;2023-05-07T04:13:26;100133.53;;;15.99;72.72
78888;BME280;68276;49.326;8.690;2023-05-07T04:15:53;100133.94;;;16.02;72.64
78888;BME280;68276;49.326;8.690;2023-05-07T04:18:19;100129.13;;;16.04;72.24
78888;BME280;68276;49.326;8.690;2023-05-07T04:20:45;100142.66;;;16.04;72.58
78888;BME280;68276;49.326;8.690;2023-05-07T04:23:10;100136.72;;;15.96;75.25
78888;BME280;68276;49.326;8.690;2023-05-07T04:25:36;100139.22;;;15.73;79.41
78888;BME280;68276;49.326;8.690;2023-05-07T04:28:01;100139.09;;;15.43;83.03
78888;BME280;68276;49.326;8.690;2023-05-07T04:30:27;100143.38;;;15.26;81.68
78888;BME280;68276;49.326;8.690;2023-05-07T04:32:52;100143.47;;;15.38;79.53
78888;BME280;68276;49.326;8.690;2023-05-07T04:35:18;100135.66;;;15.79;74.99
78888;BME280;68276;49.326;8.690;2023-05-07T04:37:44;100137.00;;;15.88;74.21
78888;BME280;68276;49.326;8.690;2023-05-07T04:40:09;100139.72;;;16.06;72.96
78888;BME280;68276;49.326;8.690;2023-05-07T04:42:35;100138.59;;;16.14;72.70
78888;BME280;68276;49.326;8.690;2023-05-07T04:45:01;100140.03;;;16.16;72.26
78888;BME280;68276;49.326;8.690;2023-05-07T04:47:27;100138.53;;;16.20;72.26
78888;BME280;68276;49.326;8.690;2023-05-07T04:49:52;100146.44;;;16.22;72.28
78888;BME280;68276;49.326;8.690;2023-05-07T04:52:17;100150.59;;;16.24;71.85
78888;BME280;68276;49.326;8.690;2023-05-07T04:54:43;100152.00;;;16.27;72.17
78888;BME280;68276;49.326;8.690;2023-05-07T04:57:08;100156.34;;;16.28;71.83
78888;BME280;68276;49.326;8.690;2023-05-07T04:59:34;100146.56;;;16.27;72.07
78888;BME280;68276;49.326;8.690;2023-05-07T05:01:59;100155.78;;;16.26;71.79
78888;BME280;68276;49.326;8.690;2023-05-07T05:04:25;100154.00;;;16.31;72.15
78888;BME280;68276;49.326;8.690;2023-05-07T05:06:50;100147.41;;;16.27;72.47
78888;BME280;68276;49.326;8.690;2023-05-07T05:09:16;100145.72;;;16.26;72.58
78888;BME280;68276;49.326;8.690;2023-05-07T05:11:41;100144.31;;;16.24;72.54
78888;BME280;68276;49.326;8.690;2023-05-07T05:14:07;100156.00;;;16.24;72.65
78888;BME280;68276;49.326;8.690;2023-05-07T05:16:32;100157.03;;;16.23;73.13
78888;BME280;68276;49.326;8.690;2023-05-07T05:18:58;100153.72;;;16.21;73.41
78888;BME280;68276;49.326;8.690;2023-05-07T05:21:24;100153.28;;;16.24;73.60
78888;BME280;68276;49.326;8.690;2023-05-07T05:23:49;100151.16;;;16.26;73.41
78888;BME280;68276;49.326;8.690;2023-05-07T05:26:15;100162.00;;;16.26;73.43
78888;BME280;68276;49.326;8.690;2023-05-07T05:28:40;100154.09;;;16.25;74.06
78888;BME280;68276;49.326;8.690;2023-05-07T05:31:06;100151.38;;;16.25;73.72
78888;BME280;68276;49.326;8.690;2023-05-07T05:33:31;100155.41;;;16.22;74.68
78888;BME280;68276;49.326;8.690;2023-05-07T05:35:56;100156.56;;;16.26;74.10
78888;BME280;68276;49.326;8.690;2023-05-07T05:38:22;100160.97;;;16.27;74.51
78888;BME280;68276;49.326;8.690;2023-05-07T05:40:47;100158.25;;;16.27;74.44
78888;BME280;68276;49.326;8.690;2023-05-07T05:43:13;100155.47;;;16.34;74.20
78888;BME280;68276;49.326;8.690;2023-05-07T05:45:39;100150.88;;;16.34;74.66
78888;BME280;68276;49.326;8.690;2023-05-07T05:48:05;100148.16;;;16.34;74.80
78888;BME280;68276;49.326;8.690;2023-05-07T05:50:31;100147.47;;;16.39;74.49
78888;BME280;68276;49.326;8.690;2023-05-07T05:52:56;100146.38;;;16.46;74.12
78888;BME280;68276;49.326;8.690;2023-05-07T05:55:23;100149.88;;;16.47;74.41
78888;BME280;68276;49.326;8.690;2023-05-07T05:57:49;100149.84;;;16.53;73.67
78888;BME280;68276;49.326;8.690;2023-05-07T06:00:16;100147.03;;;16.60;73.06
78888;BME280;68276;49.326;8.690;2023-05-07T06:02:42;100143.63;;;16.64;72.54
78888;BME280;68276;49.326;8.690;2023-05-07T06:05:08;100151.59;;;16.77;72.57
78888;BME280;68276;49.326;8.690;2023-05-07T06:07:34;100147.94;;;16.83;72.11
78888;BME280;68276;49.326;8.690;2023-05-07T06:10:03;100152.34;;;16.84;71.82
78888;BME280;68276;49.326;8.690;2023-05-07T06:12:28;100159.16;;;16.87;72.01
78888;BME280;68276;49.326;8.690;2023-05-07T06:14:54;100162.47;;;16.89;72.51
78888;BME280;68276;49.326;8.690;2023-05-07T06:17:20;100162.72;;;16.87;72.21
78888;BME280;68276;49.326;8.690;2023-05-07T06:19:45;100149.16;;;16.87;72.68
78888;BME280;68276;49.326;8.690;2023-05-07T06:22:10;100152.47;;;16.89;72.64
78888;BME280;68276;49.326;8.690;2023-05-07T06:24:36;100153.19;;;16.96;72.50
78888;BME280;68276;49.326;8.690;2023-05-07T06:27:01;100158.41;;;17.09;72.22
78888;BME280;68276;49.326;8.690;2023-05-07T06:29:27;100159.03;;;17.11;71.22
78888;BME280;68276;49.326;8.690;2023-05-07T06:31:52;100164.84;;;17.27;70.69
78888;BME280;68276;49.326;8.690;2023-05-07T06:34:18;100173.34;;;17.30;70.50
78888;BME280;68276;49.326;8.690;2023-05-07T06:36:43;100171.56;;;17.24;70.23
78888;BME280;68276;49.326;8.690;2023-05-07T06:39:09;100180.41;;;17.19;71.06
78888;BME280;68276;49.326;8.690;2023-05-07T06:41:34;100185.16;;;17.36;70.47
78888;BME280;68276;49.326;8.690;2023-05-07T06:44:04;100183.19;;;17.43;70.91
78888;BME280;68276;49.326;8.690;2023-05-07T06:46:30;100182.72;;;17.46;70.27
78888;BME280;68276;49.326;8.690;2023-05-07T06:48:55;100177.34;;;17.57;70.94
78888;BME280;68276;49.326;8.690;2023-05-07T06:51:22;100183.50;;;17.64;69.78
78888;BME280;68276;49.326;8.690;2023-05-07T06:53:47;100176.28;;;17.70;69.52
78888;BME280;68276;49.326;8.690;2023-05-07T06:56:12;100175.34;;;17.76;68.91
78888;BME280;68276;49.326;8.690;2023-05-07T06:58:38;100182.22;;;17.90;68.82
78888;BME280;68276;49.326;8.690;2023-05-07T07:01:03;100184.56;;;17.75;69.94
78888;BME280;68276;49.326;8.690;2023-05-07T07:03:29;100188.34;;;17.74;70.91
78888;BME280;68276;49.326;8.690;2023-05-07T07:05:54;100189.53;;;17.78;69.75
78888;BME280;68276;49.326;8.690;2023-05-07T07:08:21;100179.81;;;17.70;70.18
78888;BME280;68276;49.326;8.690;2023-05-07T07:10:47;100186.31;;;17.81;70.66
78888;BME280;68276;49.326;8.690;2023-05-07T07:13:13;100178.66;;;17.78;70.04
78888;BME280;68276;49.326;8.690;2023-05-07T07:15:39;100180.19;;;17.85;71.06
78888;BME280;68276;49.326;8.690;2023-05-07T07:18:05;100176.41;;;17.98;71.38
78888;BME280;68276;49.326;8.690;2023-05-07T07:20:31;100179.09;;;18.09;70.18
78888;BME280;68276;49.326;8.690;2023-05-07T07:22:56;100168.59;;;18.24;70.20
78888;BME280;68276;49.326;8.690;2023-05-07T07:25:22;100170.38;;;18.42;68.31
78888;BME280;68276;49.326;8.690;2023-05-07T07:27:48;100180.63;;;18.52;68.09
78888;BME280;68276;49.326;8.690;2023-05-07T07:30:14;100169.47;;;18.65;67.03
78888;BME280;68276;49.326;8.690;2023-05-07T07:32:39;100173.34;;;18.97;66.17
78888;BME280;68276;49.326;8.690;2023-05-07T07:35:05;100174.34;;;18.91;66.63
78888;BME280;68276;49.326;8.690;2023-05-07T07:37:31;100179.91;;;18.84;65.42
78888;BME280;68276;49.326;8.690;2023-05-07T07:39:56;100170.97;;;18.72;64.57
78888;BME280;68276;49.326;8.690;2023-05-07T07:42:22;100180.00;;;18.61;66.63
78888;BME280;68276;49.326;8.690;2023-05-07T07:44:47;100184.28;;;18.57;65.75
78888;BME280;68276;49.326;8.690;2023-05-07T07:47:13;100193.00;;;18.99;65.96
78888;BME280;68276;49.326;8.690;2023-05-07T07:49:39;100201.78;;;19.17;65.08
78888;BME280;68276;49.326;8.690;2023-05-07T07:52:04;100203.66;;;19.28;64.39
78888;BME280;68276;49.326;8.690;2023-05-07T07:54:29;100210.31;;;19.21;64.44
78888;BME280;68276;49.326;8.690;2023-05-07T07:56:55;100211.53;;;19.42;64.57
78888;BME280;68276;49.326;8.690;2023-05-07T07:59:20;100204.59;;;19.67;63.53
78888;BME280;68276;49.326;8.690;2023-05-07T08:01:46;100208.66;;;19.81;62.38
78888;BME280;68276;49.326;8.690;2023-05-07T08:04:13;100205.88;;;19.60;63.61
78888;BME280;68276;49.326;8.690;2023-05-07T08:06:38;100208.66;;;19.81;64.08
78888;BME280;68276;49.326;8.690;2023-05-07T08:09:04;100213.47;;;19.91;63.37
78888;BME280;68276;49.326;8.690;2023-05-07T08:11:29;100218.91;;;19.91;62.19
78888;BME280;68276;49.326;8.690;2023-05-07T08:13:55;100215.19;;;19.97;62.41
78888;BME280;68276;49.326;8.690;2023-05-07T08:16:21;100220.81;;;20.07;61.59
78888;BME280;68276;49.326;8.690;2023-05-07T08:18:46;100226.59;;;20.27;61.98
78888;BME280;68276;49.326;8.690;2023-05-07T08:21:12;100229.00;;;20.45;59.28
78888;BME280;68276;49.326;8.690;2023-05-07T08:23:37;100231.13;;;20.38;57.71
78888;BME280;68276;49.326;8.690;2023-05-07T08:26:02;100226.25;;;20.62;58.05
78888;BME280;68276;49.326;8.690;2023-05-07T08:28:28;100231.38;;;20.58;57.57
78888;BME280;68276;49.326;8.690;2023-05-07T08:30:54;100232.94;;;20.71;56.82
78888;BME280;68276;49.326;8.690;2023-05-07T08:33:19;100226.16;;;20.35;58.86
78888;BME280;68276;49.326;8.690;2023-05-07T08:35:45;100220.28;;;20.86;57.12
78888;BME280;68276;49.326;8.690;2023-05-07T08:38:10;100216.56;;;20.97;56.21
78888;BME280;68276;49.326;8.690;2023-05-07T08:40:39;100217.50;;;21.03;56.78
78888;BME280;68276;49.326;8.690;2023-05-07T08:43:06;100231.84;;;20.93;57.07
78888;BME280;68276;49.326;8.690;2023-05-07T08:45:32;100243.91;;;21.19;55.87
78888;BME280;68276;49.326;8.690;2023-05-07T08:48:00;100236.41;;;21.31;55.51
78888;BME280;68276;49.326;8.690;2023-05-07T08:50:26;100237.84;;;21.38;54.04
78888;BME280;68276;49.326;8.690;2023-05-07T08:52:52;100244.53;;;21.52;53.78
78888;BME280;68276;49.326;8.690;2023-05-07T08:55:18;100241.75;;;21.21;54.61
78888;BME280;68276;49.326;8.690;2023-05-07T08:57:44;100238.56;;;21.29;54.73
78888;BME280;68276;49.326;8.690;2023-05-07T09:00:10;100237.94;;;21.48;54.44
78888;BME280;68276;49.326;8.690;2023-05-07T09:02:36;100229.69;;;21.43;54.67
78888;BME280;68276;49.326;8.690;2023-05-07T09:05:02;100229.53;;;21.28;56.05
78888;BME280;68276;49.326;8.690;2023-05-07T09:07:27;100227.94;;;21.91;54.62
78888;BME280;68276;49.326;8.690;2023-05-07T09:09:53;100221.81;;;22.10;53.54
78888;BME280;68276;49.326;8.690;2023-05-07T09:12:20;100217.59;;;21.98;53.70
78888;BME280;68276;49.326;8.690;2023-05-07T09:14:46;100217.84;;;22.33;53.94
78888;BME280;68276;49.326;8.690;2023-05-07T09:17:12;100214.22;;;22.64;52.85
78888;BME280;68276;49.326;8.690;2023-05-07T09:19:38;100209.00;;;22.57;52.52
78888;BME280;68276;49.326;8.690;2023-05-07T09:22:04;100207.16;;;22.78;52.42
78888;BME280;68276;49.326;8.690;2023-05-07T09:24:30;100214.38;;;22.99;52.53
78888;BME280;68276;49.326;8.690;2023-05-07T09:27:01;100216.53;;;22.92;52.69
78888;BME280;68276;49.326;8.690;2023-05-07T09:29:27;100221.94;;;22.77;52.14
78888;BME280;68276;49.326;8.690;2023-05-07T09:32:04;100207.72;;;22.80;53.13
78888;BME280;68276;49.326;8.690;2023-05-07T09:34:30;100211.50;;;22.69;52.67
78888;BME280;68276;49.326;8.690;2023-05-07T09:36:56;100208.53;;;22.34;53.86
78888;BME280;68276;49.326;8.690;2023-05-07T09:39:23;100220.75;;;22.58;53.41
78888;BME280;68276;49.326;8.690;2023-05-07T09:41:48;100218.59;;;22.65;52.95
78888;BME280;68276;49.326;8.690;2023-05-07T09:44:20;100226.34;;;22.36;53.92
78888;BME280;68276;49.326;8.690;2023-05-07T09:46:48;100222.50;;;22.79;52.41
78888;BME280;68276;49.326;8.690;2023-05-07T09:49:23;100214.88;;;22.91;51.63
78888;BME280;68276;49.326;8.690;2023-05-07T09:51:50;100206.72;;;23.01;51.33
78888;BME280;68276;49.326;8.690;2023-05-07T09:54:17;100206.19;;;23.14;51.25
78888;BME280;68276;49.326;8.690;2023-05-07T09:56:46;100201.81;;;23.13;51.91
78888;BME280;68276;49.326;8.690;2023-05-07T09:59:15;100212.56;;;23.40;49.89
78888;BME280;68276;49.326;8.690;2023-05-07T10:01:42;100203.00;;;23.47;50.41
78888;BME280;68276;49.326;8.690;2023-05-07T10:04:09;100201.09;;;23.58;50.68
78888;BME280;68276;49.326;8.690;2023-05-07T10:06:35;100208.19;;;23.44;50.69
78888;BME280;68276;49.326;8.690;2023-05-07T10:09:05;100201.28;;;23.26;50.40
78888;BME280;68276;49.326;8.690;2023-05-07T10:11:36;100201.59;;;23.50;50.90
78888;BME280;68276;49.326;8.690;2023-05-07T10:14:04;100199.13;;;23.58;50.62
78888;BME280;68276;49.326;8.690;2023-05-07T10:16:35;100202.47;;;23.75;50.39
78888;BME280;68276;49.326;8.690;2023-05-07T10:19:05;100188.16;;;24.19;49.69
78888;BME280;68276;49.326;8.690;2023-05-07T10:21:36;100186.53;;;24.03;49.10
78888;BME280;68276;49.326;8.690;2023-05-07T10:24:19;100194.22;;;24.11;49.02
78888;BME280;68276;49.326;8.690;2023-05-07T10:26:47;100182.16;;;24.12;48.96
78888;BME280;68276;49.326;8.690;2023-05-07T10:29:51;100184.53;;;24.38;50.23
78888;BME280;68276;49.326;8.690;2023-05-07T10:34:53;100180.78;;;24.04;48.31
78888;BME280;68276;49.326;8.690;2023-05-07T10:37:20;100174.97;;;24.31;48.10
78888;BME280;68276;49.326;8.690;2023-05-07T10:39:47;100181.00;;;24.38;47.58
78888;BME280;68276;49.326;8.690;2023-05-07T10:42:16;100169.63;;;24.69;47.78
78888;BME280;68276;49.326;8.690;2023-05-07T10:44:41;100178.28;;;24.13;48.41
78888;BME280;68276;49.326;8.690;2023-05-07T10:52:31;100176.44;;;24.82;46.98
78888;BME280;68276;49.326;8.690;2023-05-07T10:57:40;100172.69;;;24.53;47.85
78888;BME280;68276;49.326;8.690;2023-05-07T11:05:31;100159.44;;;24.65;46.71
78888;BME280;68276;49.326;8.690;2023-05-07T11:08:01;100161.34;;;24.79;45.74
78888;BME280;68276;49.326;8.690;2023-05-07T11:10:50;100166.53;;;24.86;44.96
78888;BME280;68276;49.326;8.690;2023-05-07T11:13:16;100160.06;;;25.06;44.54
78888;BME280;68276;49.326;8.690;2023-05-07T11:15:44;100152.50;;;25.36;44.90
78888;BME280;68276;49.326;8.690;2023-05-07T11:18:14;100158.13;;;25.11;44.45
78888;BME280;68276;49.326;8.690;2023-05-07T11:20:53;100147.00;;;25.36;43.52
78888;BME280;68276;49.326;8.690;2023-05-07T11:26:06;100153.19;;;25.08;44.23
78888;BME280;68276;49.326;8.690;2023-05-07T11:28:43;100140.22;;;25.57;42.78
78888;BME280;68276;49.326;8.690;2023-05-07T11:31:10;100143.03;;;25.52;43.20
78888;BME280;68276;49.326;8.690;2023-05-07T11:33:36;100144.91;;;25.57;43.16
78888;BME280;68276;49.326;8.690;2023-05-07T11:36:03;100144.50;;;25.40;42.92
78888;BME280;68276;49.326;8.690;2023-05-07T11:38:38;100138.63;;;25.51;42.56
78888;BME280;68276;49.326;8.690;2023-05-07T11:41:04;100139.19;;;25.77;42.37
78888;BME280;68276;49.326;8.690;2023-05-07T11:43:31;100142.38;;;25.89;42.65
78888;BME280;68276;49.326;8.690;2023-05-07T11:46:08;100140.81;;;26.12;41.76
78888;BME280;68276;49.326;8.690;2023-05-07T11:48:35;100142.75;;;25.82;41.72
78888;BME280;68276;49.326;8.690;2023-05-07T11:51:05;100142.53;;;25.74;41.71
78888;BME280;68276;49.326;8.690;2023-05-07T11:53:38;100136.56;;;25.67;41.63
78888;BME280;68276;49.326;8.690;2023-05-07T11:56:08;100139.00;;;25.68;42.60
78888;BME280;68276;49.326;8.690;2023-05-07T11:58:34;100135.53;;;25.58;41.88
78888;BME280;68276;49.326;8.690;2023-05-07T12:00:59;100126.59;;;25.99;42.25
78888;BME280;68276;49.326;8.690;2023-05-07T12:03:25;100132.78;;;25.86;42.34
78888;BME280;68276;49.326;8.690;2023-05-07T12:05:50;100123.91;;;25.66;43.01
78888;BME280;68276;49.326;8.690;2023-05-07T12:08:20;100126.22;;;25.82;42.54
78888;BME280;68276;49.326;8.690;2023-05-07T12:10:48;100114.41;;;26.11;41.84
78888;BME280;68276;49.326;8.690;2023-05-07T12:13:21;100125.47;;;26.53;41.67
78888;BME280;68276;49.326;8.690;2023-05-07T12:15:46;100130.53;;;26.46;40.80
78888;BME280;68276;49.326;8.690;2023-05-07T12:18:15;100118.84;;;26.54;40.36
78888;BME280;68276;49.326;8.690;2023-05-07T12:20:41;100122.19;;;26.51;40.43
78888;BME280;68276;49.326;8.690;2023-05-07T12:23:07;100126.06;;;27.10;39.82
78888;BME280;68276;49.326;8.690;2023-05-07T12:25:37;100125.63;;;27.41;38.75
78888;BME280;68276;49.326;8.690;2023-05-07T12:28:03;100123.31;;;27.29;39.07
78888;BME280;68276;49.326;8.690;2023-05-07T12:30:42;100110.56;;;26.96;40.01
78888;BME280;68276;49.326;8.690;2023-05-07T12:33:08;100113.06;;;26.74;40.39
78888;BME280;68276;49.326;8.690;2023-05-07T12:35:40;100112.13;;;26.18;41.82
78888;BME280;68276;49.326;8.690;2023-05-07T12:38:11;100115.28;;;26.30;40.50
78888;BME280;68276;49.326;8.690;2023-05-07T12:40:37;100107.56;;;26.74;40.25
78888;BME280;68276;49.326;8.690;2023-05-07T12:43:03;100104.09;;;26.87;39.72
78888;BME280;68276;49.326;8.690;2023-05-07T12:45:28;100113.19;;;27.06;39.85
78888;BME280;68276;49.326;8.690;2023-05-07T12:47:53;100119.00;;;27.74;37.84
78888;BME280;68276;49.326;8.690;2023-05-07T12:50:19;100111.06;;;27.67;38.31
78888;BME280;68276;49.326;8.690;2023-05-07T12:52:47;100115.81;;;27.48;38.23
78888;BME280;68276;49.326;8.690;2023-05-07T12:55:16;100115.06;;;27.61;37.36
78888;BME280;68276;49.326;8.690;2023-05-07T12:57:45;100107.09;;;27.41;37.16
78888;BME280;68276;49.326;8.690;2023-05-07T13:00:13;100101.69;;;26.99;38.03
78888;BME280;68276;49.326;8.690;2023-05-07T13:02:41;100099.91;;;26.71;38.90
78888;BME280;68276;49.326;8.690;2023-05-07T13:05:07;100103.94;;;26.55;39.62